Terminal Aerodrome Forecast
Issued by NWS

Home | Current Version | Previous Version | Text Only | Print | Product List | Glossary On
Versions: 1 2 3 4 5 6 7 8 9 10 11 12
401
FTUS45 KABQ 231741
TAFFMN
TAF
KFMN 231741Z 2318/2418 26013G21KT P6SM FEW150
     FM232000 28020G30KT P6SM FEW150
     FM240200 32008KT P6SM SKC
     FM240600 07009KT P6SM SKC
     FM241600 12006KT P6SM SKC=

USA.gov is the U.S. government's official web portal to all federal, state and local government web resources and services.